createdAt,value
2019-02-02T00:01:42.295Z,35.10
2019-02-02T00:04:10.255Z,35.57
2019-02-02T00:06:37.712Z,36.37
2019-02-02T00:09:07.487Z,34.80
2019-02-02T00:11:36.066Z,37.33
2019-02-02T00:14:05.568Z,35.13
2019-02-02T00:16:33.025Z,34.87
2019-02-02T00:19:00.377Z,37.40
2019-02-02T00:21:27.885Z,39.37
2019-02-02T00:23:55.364Z,39.37
2019-02-02T00:26:22.900Z,34.57
2019-02-02T00:28:50.318Z,36.07
2019-02-02T00:31:17.943Z,37.37
2019-02-02T00:33:45.417Z,32.43
2019-02-02T00:36:12.884Z,36.47
2019-02-02T00:38:40.345Z,40.00
2019-02-02T00:41:08.028Z,37.53
2019-02-02T00:43:38.308Z,38.37
2019-02-02T00:46:04.916Z,42.27
2019-02-02T00:48:32.389Z,44.20
2019-02-02T00:50:59.859Z,41.23
2019-02-02T00:53:27.282Z,40.53
2019-02-02T00:55:54.741Z,34.80
2019-02-02T00:58:22.072Z,35.33
2019-02-02T01:00:49.618Z,39.20
2019-02-02T01:03:16.994Z,36.00
2019-02-02T01:05:44.526Z,44.30
2019-02-02T01:08:11.982Z,38.43
2019-02-02T01:10:40.945Z,40.40
2019-02-02T01:13:08.775Z,37.53
2019-02-02T01:15:36.261Z,36.47
2019-02-02T01:18:04.586Z,41.40
2019-02-02T01:20:32.420Z,41.43
2019-02-02T01:22:59.873Z,42.50
2019-02-02T01:25:27.468Z,41.23
2019-02-02T01:28:04.919Z,39.03
2019-02-02T01:30:24.656Z,42.13
2019-02-02T01:32:52.409Z,40.43
2019-02-02T01:35:20.044Z,43.80
2019-02-02T01:37:47.699Z,39.83
2019-02-02T01:40:17.560Z,37.07
2019-02-02T01:42:45.079Z,41.37
2019-02-02T01:45:16.215Z,41.00
2019-02-02T01:47:43.626Z,37.67
2019-02-02T01:50:13.560Z,42.37
2019-02-02T01:52:40.987Z,41.27
2019-02-02T01:55:09.896Z,43.63
2019-02-02T01:57:37.293Z,37.23
2019-02-02T02:00:06.521Z,39.60
2019-02-02T02:02:33.999Z,39.00
2019-02-02T02:05:01.565Z,38.53
2019-02-02T02:07:31.590Z,34.67
2019-02-02T02:09:59.254Z,33.43
2019-02-02T02:12:26.754Z,35.10
2019-02-02T02:14:54.424Z,38.30
2019-02-02T02:17:21.900Z,36.07
2019-02-02T02:19:49.415Z,38.07
2019-02-02T02:22:16.868Z,35.53
2019-02-02T02:24:44.300Z,37.73
2019-02-02T02:27:11.821Z,35.33
2019-02-02T02:29:39.455Z,36.93
2019-02-02T02:32:06.969Z,33.50
2019-02-02T02:34:34.417Z,34.13
2019-02-02T02:37:01.910Z,29.33
2019-02-02T02:39:29.682Z,37.47
2019-02-02T02:41:57.188Z,34.43
2019-02-02T02:44:24.686Z,31.00
2019-02-02T02:46:52.182Z,30.37
2019-02-02T02:49:19.644Z,30.10
2019-02-02T02:51:47.157Z,27.87
2019-02-02T02:54:14.755Z,29.30
2019-02-02T02:56:42.338Z,30.43
2019-02-02T02:59:10.065Z,31.10
2019-02-02T03:01:37.644Z,31.40
2019-02-02T03:04:05.199Z,29.73
2019-02-02T03:06:32.792Z,30.27
2019-02-02T03:09:06.751Z,28.53
2019-02-02T03:11:35.647Z,32.30
2019-02-02T03:14:03.267Z,29.03
2019-02-02T03:16:31.856Z,31.23
2019-02-02T03:18:59.327Z,27.83
2019-02-02T03:21:26.870Z,29.20
2019-02-02T03:23:54.396Z,29.93
2019-02-02T03:26:21.853Z,30.27
2019-02-02T03:28:53.637Z,28.03
2019-02-02T03:31:18.750Z,31.00
2019-02-02T03:33:46.241Z,29.33
2019-02-02T03:36:13.743Z,33.43
2019-02-02T03:38:41.238Z,26.20
2019-02-02T03:41:08.706Z,28.37
2019-02-02T03:43:36.615Z,31.67
2019-02-02T03:46:03.986Z,30.33
2019-02-02T03:48:31.348Z,30.47
2019-02-02T03:50:58.829Z,26.10
2019-02-02T03:53:26.489Z,32.63
2019-02-02T03:55:54.099Z,27.77
2019-02-02T03:58:21.720Z,27.07
2019-02-02T04:00:49.156Z,33.37
2019-02-02T04:03:17.312Z,27.80
2019-02-02T04:05:44.801Z,30.10
2019-02-02T04:08:12.095Z,28.00
2019-02-02T04:10:39.503Z,29.87
2019-02-02T04:13:06.834Z,29.67
2019-02-02T04:15:34.356Z,27.90
2019-02-02T04:18:01.837Z,29.73
2019-02-02T04:20:29.356Z,30.10
2019-02-02T04:22:56.855Z,27.77
2019-02-02T04:25:24.260Z,29.83
2019-02-02T04:27:51.731Z,29.70
2019-02-02T04:30:21.249Z,31.07
2019-02-02T04:32:48.763Z,30.87
2019-02-02T04:35:16.457Z,30.30
2019-02-02T04:37:44.242Z,31.60
2019-02-02T04:40:12.634Z,27.93
2019-02-02T04:42:40.504Z,31.50
2019-02-02T04:45:09.390Z,29.43
2019-02-02T04:47:36.903Z,29.37
2019-02-02T04:50:05.775Z,28.93
2019-02-02T04:52:33.697Z,29.20
2019-02-02T04:55:01.219Z,28.13
2019-02-02T04:57:28.683Z,28.23
2019-02-02T04:59:56.206Z,31.30
2019-02-02T05:02:23.700Z,33.60
2019-02-02T05:04:51.232Z,38.70
2019-02-02T05:07:20.507Z,33.40
2019-02-02T05:09:47.950Z,31.13
2019-02-02T05:12:15.462Z,36.13
2019-02-02T05:14:43.084Z,31.97
2019-02-02T05:17:10.508Z,28.70
2019-02-02T05:19:38.007Z,27.80
2019-02-02T05:22:05.326Z,32.47
2019-02-02T05:24:33.152Z,35.90
2019-02-02T05:27:01.651Z,34.40
2019-02-02T05:29:41.228Z,33.03
2019-02-02T05:32:00.536Z,33.43
2019-02-02T05:34:28.032Z,33.43
2019-02-02T05:36:55.525Z,33.50
2019-02-02T05:39:22.848Z,34.00
2019-02-02T05:41:50.627Z,27.67
2019-02-02T05:44:18.317Z,31.73
2019-02-02T05:46:45.776Z,29.30
2019-02-02T05:49:15.052Z,29.17
2019-02-02T05:51:42.929Z,28.43
2019-02-02T05:54:10.409Z,30.87
2019-02-02T05:56:37.927Z,31.13
2019-02-02T05:59:05.347Z,32.23
2019-02-02T06:01:32.820Z,30.20
2019-02-02T06:04:00.418Z,27.57
2019-02-02T06:06:29.022Z,30.80
2019-02-02T06:08:56.398Z,34.23
2019-02-02T06:11:23.873Z,30.83
2019-02-02T06:13:51.566Z,32.47
2019-02-02T06:16:19.110Z,31.53
2019-02-02T06:18:46.674Z,29.67
2019-02-02T06:21:14.167Z,32.17
2019-02-02T06:23:41.675Z,31.90
2019-02-02T06:26:09.087Z,28.57
2019-02-02T06:28:36.631Z,30.43
2019-02-02T06:31:04.246Z,31.90
2019-02-02T06:33:31.716Z,36.00
2019-02-02T06:35:59.288Z,31.03
2019-02-02T06:38:27.106Z,30.43
2019-02-02T06:40:55.806Z,34.10
2019-02-02T06:43:23.286Z,33.23
2019-02-02T06:45:50.632Z,34.10
2019-02-02T06:48:18.269Z,33.77
2019-02-02T06:50:45.873Z,33.50
2019-02-02T06:53:13.349Z,31.20
2019-02-02T06:55:40.812Z,34.10
2019-02-02T06:58:08.291Z,27.70
2019-02-02T07:00:35.776Z,30.77
2019-02-02T07:03:03.229Z,29.43
2019-02-02T07:05:33.784Z,27.77
2019-02-02T07:08:00.475Z,26.63
2019-02-02T07:10:27.996Z,26.30
2019-02-02T07:12:56.009Z,27.73
2019-02-02T07:15:25.778Z,37.20
2019-02-02T07:17:53.280Z,35.83
2019-02-02T07:20:21.353Z,36.57
2019-02-02T07:22:48.908Z,43.47
2019-02-02T07:25:16.403Z,47.80
2019-02-02T07:27:43.920Z,45.23
2019-02-02T07:30:14.291Z,46.00
2019-02-02T07:32:41.722Z,38.07
2019-02-02T07:35:09.802Z,34.37
2019-02-02T07:37:37.524Z,34.27
2019-02-02T07:40:06.463Z,32.13
2019-02-02T07:42:34.166Z,34.13
2019-02-02T07:45:06.552Z,36.43
2019-02-02T07:47:34.236Z,27.93
2019-02-02T07:50:01.682Z,31.53
2019-02-02T07:52:29.737Z,35.07
2019-02-02T07:54:57.240Z,34.57
2019-02-02T07:57:24.698Z,37.83
2019-02-02T07:59:52.519Z,36.40
2019-02-02T08:02:19.860Z,36.83
2019-02-02T08:04:47.155Z,42.23
2019-02-02T08:07:14.931Z,39.80
2019-02-02T08:09:42.487Z,35.27
2019-02-02T08:12:10.010Z,37.63
2019-02-02T08:14:37.497Z,33.13
2019-02-02T08:17:04.977Z,44.03
2019-02-02T08:19:32.459Z,40.83
2019-02-02T08:21:59.951Z,37.90
2019-02-02T08:24:27.302Z,46.23
2019-02-02T08:26:54.784Z,48.23
2019-02-02T08:29:22.274Z,41.97
2019-02-02T08:31:49.782Z,42.50
2019-02-02T08:34:17.283Z,42.17
2019-02-02T08:36:44.625Z,45.70
2019-02-02T08:39:12.177Z,51.87
2019-02-02T08:41:39.788Z,53.20
2019-02-02T08:44:07.339Z,43.47
2019-02-02T08:46:34.776Z,52.53
2019-02-02T08:49:02.079Z,70.30
2019-02-02T08:51:29.488Z,77.43
2019-02-02T08:53:57.191Z,87.20
2019-02-02T08:56:24.565Z,87.50
2019-02-02T08:58:52.149Z,67.33
2019-02-02T09:01:19.618Z,53.83
2019-02-02T09:03:47.013Z,41.20
2019-02-02T09:06:14.502Z,40.00
2019-02-02T09:08:41.986Z,34.63
2019-02-02T09:11:09.557Z,38.60
2019-02-02T09:13:37.101Z,35.57
2019-02-02T09:16:04.732Z,35.20
2019-02-02T09:18:32.475Z,34.07
2019-02-02T09:20:59.976Z,31.60
2019-02-02T09:23:27.449Z,33.17
2019-02-02T09:25:54.909Z,36.20
2019-02-02T09:28:22.253Z,28.43
2019-02-02T09:30:49.832Z,31.27
2019-02-02T09:33:17.333Z,30.37
2019-02-02T09:35:44.839Z,26.00
2019-02-02T09:38:12.697Z,33.33
2019-02-02T09:40:40.845Z,33.13
2019-02-02T09:43:08.274Z,35.50
2019-02-02T09:45:35.651Z,34.30
2019-02-02T09:48:03.208Z,33.70
2019-02-02T09:50:30.804Z,35.93
2019-02-02T09:52:58.277Z,33.23
2019-02-02T09:55:25.830Z,32.37
2019-02-02T09:57:55.661Z,38.33
2019-02-02T10:00:28.037Z,53.70
2019-02-02T10:02:55.859Z,69.17
2019-02-02T10:05:23.789Z,65.50
2019-02-02T10:07:51.187Z,46.23
2019-02-02T10:10:21.055Z,41.23
2019-02-02T10:12:48.954Z,36.43
2019-02-02T10:15:17.715Z,36.30
2019-02-02T10:17:45.537Z,34.80
2019-02-02T10:20:15.620Z,35.83
2019-02-02T10:22:43.209Z,39.67
2019-02-02T10:25:12.634Z,30.73
2019-02-02T10:27:40.287Z,24.90
2019-02-02T10:30:13.943Z,19.10
2019-02-02T10:32:41.420Z,20.30
2019-02-02T10:35:09.223Z,21.50
2019-02-02T10:37:36.681Z,20.97
2019-02-02T10:40:07.526Z,21.87
2019-02-02T10:42:35.120Z,21.53
2019-02-02T10:45:02.765Z,20.07
2019-02-02T10:47:30.352Z,19.33
2019-02-02T10:49:57.860Z,17.37
2019-02-02T10:52:25.328Z,22.73
2019-02-02T10:54:52.740Z,21.00
2019-02-02T10:57:20.099Z,20.83
2019-02-02T10:59:49.011Z,18.63
2019-02-02T11:02:17.792Z,22.83
2019-02-02T11:04:46.326Z,18.07
2019-02-02T11:07:13.968Z,18.87
2019-02-02T11:09:41.668Z,19.50
2019-02-02T11:12:09.365Z,17.93
2019-02-02T11:14:37.769Z,18.73
2019-02-02T11:17:05.537Z,17.53
2019-02-02T11:19:33.161Z,18.97
2019-02-02T11:22:00.624Z,17.73
2019-02-02T11:24:28.223Z,26.60
2019-02-02T11:26:55.873Z,22.47
2019-02-02T11:29:23.481Z,18.67
2019-02-02T11:32:02.178Z,18.80
2019-02-02T11:34:21.502Z,14.13
2019-02-02T11:36:48.972Z,16.70
2019-02-02T11:39:16.493Z,15.20
2019-02-02T11:41:43.985Z,15.93
2019-02-02T11:44:11.472Z,16.83
2019-02-02T11:46:39.112Z,22.73
2019-02-02T11:49:06.875Z,16.30
2019-02-02T11:51:34.668Z,17.03
2019-02-02T11:54:02.345Z,16.00
2019-02-02T11:56:29.840Z,18.27
2019-02-02T11:58:57.643Z,16.77
2019-02-02T12:01:25.399Z,12.77
2019-02-02T12:03:52.905Z,13.40
2019-02-02T12:06:20.348Z,14.80
2019-02-02T12:08:49.396Z,16.07
2019-02-02T12:11:17.002Z,14.20
2019-02-02T12:13:44.356Z,11.77
2019-02-02T12:16:12.080Z,13.27
2019-02-02T12:18:39.547Z,12.93
2019-02-02T12:21:07.331Z,13.70
2019-02-02T12:23:34.854Z,15.97
2019-02-02T12:26:02.324Z,14.50
2019-02-02T12:28:29.938Z,11.30
2019-02-02T12:30:57.447Z,11.13
2019-02-02T12:33:25.948Z,13.83
2019-02-02T12:35:53.691Z,9.83
2019-02-02T12:38:21.136Z,10.50
2019-02-02T12:40:48.636Z,12.17
2019-02-02T12:43:16.089Z,10.97
2019-02-02T12:45:46.444Z,9.00
2019-02-02T12:48:15.065Z,8.17
2019-02-02T12:50:42.853Z,9.33
2019-02-02T12:53:10.685Z,9.67
2019-02-02T12:55:38.526Z,7.17
2019-02-02T12:58:07.171Z,10.27
2019-02-02T13:00:34.575Z,11.53
2019-02-02T13:03:02.071Z,8.67
2019-02-02T13:05:29.568Z,8.90
2019-02-02T13:07:57.238Z,11.00
2019-02-02T13:10:25.838Z,13.07
2019-02-02T13:12:53.509Z,13.03
2019-02-02T13:15:20.972Z,12.53
2019-02-02T13:17:49.026Z,14.13
2019-02-02T13:20:16.810Z,15.00
2019-02-02T13:22:44.824Z,12.43
2019-02-02T13:25:14.719Z,9.27
2019-02-02T13:27:43.134Z,8.60
2019-02-02T13:30:14.415Z,7.80
2019-02-02T13:32:49.727Z,10.97
2019-02-02T13:35:13.343Z,7.83
2019-02-02T13:37:41.075Z,8.27
2019-02-02T13:40:11.671Z,9.20
2019-02-02T13:42:39.167Z,6.47
2019-02-02T13:45:07.516Z,6.50
2019-02-02T13:47:35.400Z,22.40
2019-02-02T13:50:03.845Z,26.00
2019-02-02T13:52:32.034Z,23.80
2019-02-02T13:54:59.665Z,26.57
2019-02-02T13:57:27.144Z,22.93
2019-02-02T13:59:54.816Z,26.17
2019-02-02T14:02:22.606Z,27.60
2019-02-02T14:04:50.116Z,24.83
2019-02-02T14:07:18.443Z,21.23
2019-02-02T14:09:46.095Z,24.43
2019-02-02T14:12:13.696Z,21.90
2019-02-02T14:14:41.130Z,22.70
2019-02-02T14:17:08.652Z,22.77
2019-02-02T14:19:36.157Z,26.53
2019-02-02T14:22:03.882Z,21.97
2019-02-02T14:24:31.967Z,25.90
2019-02-02T14:27:00.992Z,24.17
2019-02-02T14:29:28.854Z,22.90
2019-02-02T14:31:56.345Z,19.57
2019-02-02T14:34:23.975Z,22.43
2019-02-02T14:36:51.372Z,23.57
2019-02-02T14:39:19.184Z,23.27
2019-02-02T14:41:48.467Z,25.57
2019-02-02T14:44:15.814Z,27.87
2019-02-02T14:46:43.310Z,25.37
2019-02-02T14:49:11.206Z,40.97
2019-02-02T14:51:39.092Z,31.23
2019-02-02T14:54:06.610Z,30.77
2019-02-02T14:56:34.078Z,27.33
2019-02-02T14:59:03.525Z,26.90
2019-02-02T15:01:30.962Z,19.23
2019-02-02T15:03:58.814Z,20.77
2019-02-02T15:06:26.283Z,18.20
2019-02-02T15:08:54.023Z,16.83
2019-02-02T15:11:21.947Z,18.07
2019-02-02T15:13:49.593Z,17.57
2019-02-02T15:16:18.492Z,17.30
2019-02-02T15:18:46.002Z,18.60
2019-02-02T15:21:13.603Z,22.00
2019-02-02T15:23:41.163Z,23.07
2019-02-02T15:26:08.754Z,25.90
2019-02-02T15:28:36.235Z,30.13
2019-02-02T15:31:03.697Z,21.13
2019-02-02T15:33:37.859Z,26.33
2019-02-02T15:36:02.480Z,23.83
2019-02-02T15:38:31.433Z,22.63
2019-02-02T15:40:59.536Z,24.47
2019-02-02T15:43:27.269Z,23.47
2019-02-02T15:45:54.759Z,27.30
2019-02-02T15:48:22.239Z,23.43
2019-02-02T15:50:49.676Z,27.50
2019-02-02T15:53:17.164Z,24.30
2019-02-02T15:55:44.728Z,31.60
2019-02-02T15:58:12.062Z,26.67
2019-02-02T16:00:39.516Z,24.43
2019-02-02T16:03:08.840Z,24.20
2019-02-02T16:05:36.641Z,24.57
2019-02-02T16:08:10.109Z,24.30
2019-02-02T16:10:37.816Z,27.40
2019-02-02T16:13:05.297Z,26.50
2019-02-02T16:15:34.278Z,25.57
2019-02-02T16:18:02.439Z,26.40
2019-02-02T16:20:32.837Z,29.00
2019-02-02T16:23:00.370Z,27.07
2019-02-02T16:25:27.859Z,28.20
2019-02-02T16:27:55.379Z,31.73
2019-02-02T16:30:24.530Z,30.53
2019-02-02T16:32:52.089Z,27.53
2019-02-02T16:35:19.524Z,28.23
2019-02-02T16:37:47.045Z,28.17
2019-02-02T16:40:17.904Z,28.03
2019-02-02T16:42:45.435Z,28.80
2019-02-02T16:45:14.783Z,27.50
2019-02-02T16:47:42.116Z,25.87
2019-02-02T16:50:11.921Z,25.83
2019-02-02T16:52:39.411Z,24.43
2019-02-02T16:55:07.964Z,25.83
2019-02-02T16:57:35.475Z,24.93
2019-02-02T17:00:04.556Z,31.47
2019-02-02T17:02:32.213Z,28.77
2019-02-02T17:05:00.013Z,26.67
2019-02-02T17:07:27.784Z,32.10
2019-02-02T17:09:55.285Z,31.97
2019-02-02T17:12:22.785Z,35.90
2019-02-02T17:14:50.384Z,30.60
2019-02-02T17:17:17.784Z,28.83
2019-02-02T17:19:45.354Z,30.23
2019-02-02T17:22:12.856Z,26.40
2019-02-02T17:24:40.413Z,30.90
2019-02-02T17:27:08.530Z,25.73
2019-02-02T17:29:36.219Z,25.97
2019-02-02T17:32:04.035Z,31.40
2019-02-02T17:34:31.512Z,37.97
2019-02-02T17:36:58.993Z,35.93
2019-02-02T17:39:26.731Z,35.23
2019-02-02T17:41:54.250Z,27.13
2019-02-02T17:44:21.712Z,36.90
2019-02-02T17:46:49.238Z,32.23
2019-02-02T17:49:16.702Z,36.67
2019-02-02T17:51:44.192Z,59.23
2019-02-02T17:54:11.697Z,47.60
2019-02-02T17:56:39.534Z,43.83
2019-02-02T17:59:07.607Z,39.87
2019-02-02T18:01:35.201Z,44.63
2019-02-02T18:04:04.308Z,44.43
2019-02-02T18:06:31.824Z,40.03
2019-02-02T18:08:59.462Z,40.13
2019-02-02T18:11:26.947Z,40.83
2019-02-02T18:13:54.323Z,41.30
2019-02-02T18:16:27.256Z,42.23
2019-02-02T18:19:29.378Z,41.33
2019-02-02T18:22:03.170Z,39.30
2019-02-02T18:24:30.553Z,39.43
2019-02-02T18:26:58.316Z,41.23
2019-02-02T18:29:26.387Z,34.40
2019-02-02T18:31:53.916Z,38.33
2019-02-02T18:34:23.221Z,45.70
2019-02-02T18:36:50.662Z,40.43
2019-02-02T18:39:18.175Z,50.43
2019-02-02T18:41:45.504Z,52.97
2019-02-02T18:44:12.942Z,61.23
2019-02-02T18:46:40.332Z,55.20
2019-02-02T18:49:07.702Z,53.57
2019-02-02T18:51:35.216Z,58.37
2019-02-02T18:54:03.112Z,54.13
2019-02-02T18:56:30.594Z,59.20
2019-02-02T18:58:58.105Z,50.47
2019-02-02T19:01:25.583Z,50.43
2019-02-02T19:03:53.115Z,53.90
2019-02-02T19:06:20.548Z,57.13
2019-02-02T19:08:48.026Z,51.07
2019-02-02T19:11:16.654Z,52.43
2019-02-02T19:13:44.190Z,55.50
2019-02-02T19:16:11.654Z,54.40
2019-02-02T19:18:39.021Z,52.60
2019-02-02T19:21:06.517Z,48.33
2019-02-02T19:23:35.147Z,53.13
2019-02-02T19:26:02.673Z,51.33
2019-02-02T19:28:39.543Z,52.17
2019-02-02T19:30:59.959Z,50.87
2019-02-02T19:33:27.460Z,50.10
2019-02-02T19:35:54.984Z,54.23
2019-02-02T19:38:22.462Z,51.43
2019-02-02T19:40:50.311Z,52.77
2019-02-02T19:43:17.853Z,54.47
2019-02-02T19:45:45.373Z,59.20
2019-02-02T19:48:13.660Z,53.00
2019-02-02T19:50:41.211Z,56.53
2019-02-02T19:53:08.839Z,54.23
2019-02-02T19:55:36.433Z,56.33
2019-02-02T19:58:04.822Z,52.07
2019-02-02T20:00:32.704Z,53.27
2019-02-02T20:03:01.661Z,54.30
2019-02-02T20:05:29.412Z,49.93
2019-02-02T20:07:57.448Z,49.67
2019-02-02T20:10:25.799Z,52.10
2019-02-02T20:12:53.387Z,52.53
2019-02-02T20:15:22.763Z,47.17
2019-02-02T20:17:50.396Z,52.00
2019-02-02T20:20:19.400Z,47.33
2019-02-02T20:22:47.429Z,51.40
2019-02-02T20:25:15.137Z,47.93
2019-02-02T20:27:42.778Z,46.70
2019-02-02T20:30:14.266Z,43.87
2019-02-02T20:32:41.806Z,44.63
2019-02-02T20:35:10.203Z,42.80
2019-02-02T20:37:38.760Z,42.67
2019-02-02T20:40:08.619Z,52.63
2019-02-02T20:42:36.182Z,52.90
2019-02-02T20:45:09.806Z,109.67
2019-02-02T20:47:52.923Z,64.90
2019-02-02T20:50:20.392Z,54.70
2019-02-02T20:52:48.104Z,43.17
2019-02-02T20:55:18.386Z,44.37
2019-02-02T20:57:46.160Z,40.57
2019-02-02T21:00:15.829Z,44.80
2019-02-02T21:02:43.326Z,39.63
2019-02-02T21:05:10.810Z,41.67
2019-02-02T21:07:38.389Z,43.77
2019-02-02T21:10:08.100Z,43.70
2019-02-02T21:12:35.896Z,42.67
2019-02-02T21:15:05.058Z,40.40
2019-02-02T21:17:32.542Z,39.27
2019-02-02T21:20:00.326Z,44.07
2019-02-02T21:22:27.910Z,49.53
2019-02-02T21:24:55.422Z,44.30
2019-02-02T21:27:23.293Z,44.63
2019-02-02T21:29:50.962Z,48.10
2019-02-02T21:32:18.571Z,43.67
2019-02-02T21:34:46.189Z,52.60
2019-02-02T21:37:13.692Z,50.37
2019-02-02T21:39:41.552Z,53.57
2019-02-02T21:42:09.471Z,45.87
2019-02-02T21:44:43.329Z,66.23
2019-02-02T21:47:06.420Z,61.63
2019-02-02T21:49:34.103Z,64.03
2019-02-02T21:52:01.612Z,64.40
2019-02-02T21:54:29.352Z,73.47
2019-02-02T21:56:57.771Z,70.57
2019-02-02T21:59:25.249Z,65.80
2019-02-02T22:01:52.871Z,63.87
2019-02-02T22:04:20.369Z,50.97
2019-02-02T22:06:48.071Z,50.43
2019-02-02T22:09:15.751Z,84.87
2019-02-02T22:11:43.770Z,67.83
2019-02-02T22:14:11.352Z,50.77
2019-02-02T22:16:38.837Z,58.23
2019-02-02T22:19:06.817Z,60.50
2019-02-02T22:21:34.413Z,60.87
2019-02-02T22:24:02.375Z,56.67
2019-02-02T22:26:30.747Z,50.17
2019-02-02T22:28:58.369Z,58.00
2019-02-02T22:31:25.986Z,52.17
2019-02-02T22:33:53.528Z,57.27
2019-02-02T22:36:27.438Z,51.40
2019-02-02T22:38:50.848Z,51.43
2019-02-02T22:41:18.360Z,52.50
2019-02-02T22:43:46.760Z,54.40
2019-02-02T22:46:14.085Z,52.73
2019-02-02T22:48:41.550Z,54.50
2019-02-02T22:51:09.067Z,48.90
2019-02-02T22:53:36.559Z,49.53
2019-02-02T22:56:04.432Z,71.80
2019-02-02T22:58:31.892Z,72.27
2019-02-02T23:01:24.648Z,58.20
2019-02-02T23:04:22.163Z,53.23
2019-02-02T23:07:44.124Z,56.53
2019-02-02T23:10:49.587Z,55.10
2019-02-02T23:13:25.436Z,60.97
2019-02-02T23:16:28.255Z,76.47
2019-02-02T23:18:56.978Z,68.33
2019-02-02T23:21:25.500Z,76.67
2019-02-02T23:23:53.235Z,64.07
2019-02-02T23:26:21.052Z,62.90
2019-02-02T23:28:48.564Z,64.57
2019-02-02T23:31:17.173Z,61.63
2019-02-02T23:33:44.634Z,55.40
2019-02-02T23:36:13.406Z,62.13
2019-02-02T23:38:41.114Z,56.77
2019-02-02T23:41:08.584Z,61.67
2019-02-02T23:43:36.066Z,55.80
2019-02-02T23:46:03.981Z,52.40
2019-02-02T23:48:31.493Z,50.87
2019-02-02T23:50:59.173Z,53.90
2019-02-02T23:53:26.621Z,55.80
2019-02-02T23:55:54.124Z,54.00
2019-02-02T23:58:21.648Z,53.23
